createdAt,value
2018-06-02T00:02:19.904Z,5.72
2018-06-02T00:04:48.240Z,5.35
2018-06-02T00:07:16.646Z,5.93
2018-06-02T00:09:45.030Z,5.70
2018-06-02T00:12:13.355Z,5.68
2018-06-02T00:14:41.814Z,6.12
2018-06-02T00:17:09.480Z,5.78
2018-06-02T00:19:37.027Z,6.07
2018-06-02T00:22:05.427Z,5.70
2018-06-02T00:24:33.113Z,5.87
2018-06-02T00:27:00.802Z,6.62
2018-06-02T00:29:28.418Z,5.93
2018-06-02T00:31:55.990Z,5.60
2018-06-02T00:34:23.607Z,5.12
2018-06-02T00:36:51.209Z,5.18
2018-06-02T00:39:18.742Z,5.32
2018-06-02T00:41:46.452Z,4.97
2018-06-02T00:44:14.041Z,5.40
2018-06-02T00:46:41.669Z,5.73
2018-06-02T00:49:09.995Z,5.82
2018-06-02T00:51:37.661Z,5.40
2018-06-02T00:54:05.324Z,5.72
2018-06-02T00:56:32.882Z,5.90
2018-06-02T00:59:00.668Z,5.50
2018-06-02T01:01:28.301Z,5.90
2018-06-02T01:03:55.861Z,6.00
2018-06-02T01:06:23.437Z,6.00
2018-06-02T01:08:51.097Z,6.12
2018-06-02T01:11:18.752Z,5.70
2018-06-02T01:13:46.384Z,6.20
2018-06-02T01:16:14.063Z,6.10
2018-06-02T01:18:41.614Z,6.35
2018-06-02T01:21:09.155Z,5.80
2018-06-02T01:23:36.773Z,6.53
2018-06-02T01:26:04.393Z,6.22
2018-06-02T01:28:32.722Z,6.40
2018-06-02T01:31:00.397Z,6.20
2018-06-02T01:33:28.030Z,6.00
2018-06-02T01:35:55.658Z,6.10
2018-06-02T01:38:24.009Z,5.45
2018-06-02T01:40:51.622Z,5.50
2018-06-02T01:43:19.191Z,5.53
2018-06-02T01:45:46.892Z,5.05
2018-06-02T01:48:14.423Z,5.25
2018-06-02T01:50:41.959Z,4.80
2018-06-02T01:53:09.592Z,5.10
2018-06-02T01:55:37.166Z,5.47
2018-06-02T01:58:04.782Z,5.37
2018-06-02T02:00:33.196Z,5.03
2018-06-02T02:03:00.750Z,5.55
2018-06-02T02:05:28.985Z,5.25
2018-06-02T02:07:56.533Z,4.85
2018-06-02T02:10:24.091Z,5.07
2018-06-02T02:12:52.473Z,5.25
2018-06-02T02:15:20.882Z,5.00
2018-06-02T02:17:48.459Z,5.22
2018-06-02T02:20:16.129Z,4.80
2018-06-02T02:22:43.779Z,4.50
2018-06-02T02:25:11.404Z,4.43
2018-06-02T02:27:38.959Z,4.68
2018-06-02T02:30:07.409Z,4.57
2018-06-02T02:32:35.071Z,4.43
2018-06-02T02:35:03.482Z,4.15
2018-06-02T02:37:31.060Z,4.13
2018-06-02T02:39:58.596Z,3.90
2018-06-02T02:42:26.240Z,4.62
2018-06-02T02:44:53.779Z,5.18
2018-06-02T02:47:22.071Z,4.65
2018-06-02T02:49:50.379Z,5.82
2018-06-02T02:52:18.675Z,5.10
2018-06-02T02:54:46.348Z,4.85
2018-06-02T02:57:13.990Z,4.15
2018-06-02T02:59:42.355Z,3.90
2018-06-02T03:02:10.034Z,3.80
2018-06-02T03:04:37.731Z,4.00
2018-06-02T03:07:05.350Z,3.95
2018-06-02T03:09:33.761Z,3.90
2018-06-02T03:12:01.366Z,4.17
2018-06-02T03:14:28.939Z,4.22
2018-06-02T03:16:56.549Z,4.10
2018-06-02T03:19:24.891Z,4.07
2018-06-02T03:21:52.489Z,4.10
2018-06-02T03:24:20.106Z,4.07
2018-06-02T03:26:48.423Z,4.40
2018-06-02T03:29:16.749Z,4.07
2018-06-02T03:31:44.356Z,5.05
2018-06-02T03:34:12.692Z,4.90
2018-06-02T03:36:40.993Z,4.80
2018-06-02T03:39:08.646Z,5.00
2018-06-02T03:41:37.008Z,4.87
2018-06-02T03:44:04.582Z,5.00
2018-06-02T03:46:32.198Z,5.68
2018-06-02T03:49:00.621Z,4.60
2018-06-02T03:51:28.941Z,5.00
2018-06-02T03:53:56.482Z,4.60
2018-06-02T03:56:24.151Z,4.62
2018-06-02T03:58:51.744Z,4.40
2018-06-02T04:01:20.099Z,4.30
2018-06-02T04:03:48.433Z,4.22
2018-06-02T04:06:15.972Z,4.00
2018-06-02T04:08:44.382Z,4.62
2018-06-02T04:11:11.906Z,4.85
2018-06-02T04:13:39.427Z,4.87
2018-06-02T04:16:07.026Z,5.15
2018-06-02T04:18:35.409Z,5.22
2018-06-02T04:21:02.984Z,5.57
2018-06-02T04:23:30.664Z,5.55
2018-06-02T04:25:58.271Z,5.70
2018-06-02T04:28:26.562Z,5.30
2018-06-02T04:30:54.870Z,6.33
2018-06-02T04:33:23.211Z,6.15
2018-06-02T04:35:51.519Z,6.35
2018-06-02T04:38:19.190Z,6.87
2018-06-02T04:40:47.509Z,6.50
2018-06-02T04:43:15.047Z,6.12
2018-06-02T04:45:42.589Z,6.37
2018-06-02T04:48:10.929Z,6.22
2018-06-02T04:50:38.607Z,6.45
2018-06-02T04:53:06.975Z,6.28
2018-06-02T04:55:35.280Z,6.68
2018-06-02T04:58:03.621Z,6.62
2018-06-02T05:00:31.922Z,6.82
2018-06-02T05:02:59.467Z,6.47
2018-06-02T05:05:27.859Z,6.78
2018-06-02T05:07:55.637Z,7.03
2018-06-02T05:10:23.199Z,6.85
2018-06-02T05:12:50.817Z,6.90
2018-06-02T05:15:19.096Z,6.65
2018-06-02T05:17:46.818Z,7.10
2018-06-02T05:20:14.468Z,6.45
2018-06-02T05:22:42.066Z,6.12
2018-06-02T05:25:11.375Z,6.32
2018-06-02T05:27:39.689Z,6.55
2018-06-02T05:30:08.208Z,6.12
2018-06-02T05:32:36.658Z,6.10
2018-06-02T05:35:04.951Z,5.90
2018-06-02T05:37:33.253Z,5.30
2018-06-02T05:40:00.900Z,5.60
2018-06-02T05:42:29.242Z,5.12
2018-06-02T05:44:56.815Z,5.40
2018-06-02T05:47:24.451Z,5.65
2018-06-02T05:49:52.052Z,5.00
2018-06-02T05:52:20.373Z,5.50
2018-06-02T05:54:47.948Z,5.50
2018-06-02T05:57:15.614Z,5.37
2018-06-02T05:59:45.166Z,5.90
2018-06-02T06:02:11.010Z,5.55
2018-06-02T06:04:38.685Z,5.53
2018-06-02T06:07:06.235Z,5.40
2018-06-02T06:09:33.783Z,5.18
2018-06-02T06:12:01.396Z,4.85
2018-06-02T06:14:28.953Z,5.18
2018-06-02T06:16:56.500Z,5.12
2018-06-02T06:19:24.861Z,5.12
2018-06-02T06:21:52.409Z,5.00
2018-06-02T06:24:20.795Z,5.25
2018-06-02T06:26:49.134Z,5.22
2018-06-02T06:29:17.432Z,5.47
2018-06-02T06:31:44.955Z,5.50
2018-06-02T06:34:12.755Z,5.87
2018-06-02T06:36:40.284Z,5.35
2018-06-02T06:39:08.686Z,5.50
2018-06-02T06:41:36.239Z,5.25
2018-06-02T06:44:04.544Z,5.82
2018-06-02T06:46:32.858Z,5.47
2018-06-02T06:49:00.525Z,5.37
2018-06-02T06:51:28.063Z,6.15
2018-06-02T06:53:55.631Z,5.57
2018-06-02T06:56:23.975Z,5.78
2018-06-02T06:58:51.509Z,6.62
2018-06-02T07:01:19.115Z,5.97
2018-06-02T07:03:46.705Z,6.05
2018-06-02T07:06:15.209Z,5.40
2018-06-02T07:08:42.756Z,5.78
2018-06-02T07:11:11.074Z,5.85
2018-06-02T07:13:39.406Z,5.78
2018-06-02T07:16:06.928Z,6.00
2018-06-02T07:18:35.250Z,5.82
2018-06-02T07:21:02.778Z,5.78
2018-06-02T07:23:31.162Z,5.85
2018-06-02T07:25:58.760Z,5.73
2018-06-02T07:28:26.362Z,6.03
2018-06-02T07:30:53.936Z,5.40
2018-06-02T07:33:21.542Z,5.22
2018-06-02T07:35:49.230Z,5.35
2018-06-02T07:38:17.559Z,5.35
2018-06-02T07:40:45.141Z,5.50
2018-06-02T07:43:13.494Z,4.50
2018-06-02T07:45:41.035Z,4.90
2018-06-02T07:48:08.564Z,4.95
2018-06-02T07:50:36.901Z,5.07
2018-06-02T07:53:07.405Z,5.03
2018-06-02T07:55:34.985Z,5.27
2018-06-02T07:58:03.582Z,5.22
2018-06-02T08:00:32.042Z,5.20
2018-06-02T08:03:00.382Z,5.47
2018-06-02T08:05:28.682Z,5.10
2018-06-02T08:07:56.266Z,4.95
2018-06-02T08:10:23.818Z,5.10
2018-06-02T08:12:54.187Z,5.40
2018-06-02T08:15:21.880Z,5.28
2018-06-02T08:17:49.467Z,4.67
2018-06-02T08:20:17.761Z,5.12
2018-06-02T08:22:45.274Z,5.22
2018-06-02T08:25:12.792Z,5.15
2018-06-02T08:27:41.127Z,5.40
2018-06-02T08:30:09.462Z,6.05
2018-06-02T08:32:37.832Z,5.60
2018-06-02T08:35:05.457Z,4.65
2018-06-02T08:37:34.045Z,5.28
2018-06-02T08:40:01.820Z,4.57
2018-06-02T08:42:29.488Z,5.37
2018-06-02T08:44:57.032Z,4.95
2018-06-02T08:47:24.595Z,4.97
2018-06-02T08:49:52.989Z,4.82
2018-06-02T08:52:20.703Z,4.65
2018-06-02T08:54:48.322Z,5.00
2018-06-02T08:57:25.250Z,5.00
2018-06-02T08:59:53.529Z,4.97
2018-06-02T09:02:21.067Z,5.10
2018-06-02T09:04:49.368Z,4.87
2018-06-02T09:07:16.980Z,5.00
2018-06-02T09:09:44.609Z,4.70
2018-06-02T09:12:13.297Z,4.90
2018-06-02T09:14:40.936Z,5.45
2018-06-02T09:17:08.502Z,5.57
2018-06-02T09:19:36.052Z,5.43
2018-06-02T09:22:03.599Z,5.10
2018-06-02T09:24:31.208Z,5.00
2018-06-02T09:26:58.756Z,5.12
2018-06-02T09:29:27.142Z,4.80
2018-06-02T09:31:54.804Z,5.20
2018-06-02T09:34:23.150Z,5.50
2018-06-02T09:36:51.537Z,4.90
2018-06-02T09:39:19.299Z,4.97
2018-06-02T09:41:46.860Z,4.90
2018-06-02T09:44:14.401Z,4.70
2018-06-02T09:46:42.715Z,4.60
2018-06-02T09:49:11.016Z,5.10
2018-06-02T09:51:39.371Z,4.78
2018-06-02T09:54:07.387Z,4.70
2018-06-02T09:56:34.967Z,4.78
2018-06-02T09:59:02.775Z,4.77
2018-06-02T10:01:30.404Z,5.37
2018-06-02T10:03:57.933Z,5.23
2018-06-02T10:06:26.275Z,5.50
2018-06-02T10:08:53.868Z,5.00
2018-06-02T10:11:21.375Z,4.50
2018-06-02T10:13:49.007Z,5.12
2018-06-02T10:16:16.548Z,4.50
2018-06-02T10:18:44.144Z,4.20
2018-06-02T10:21:11.745Z,4.80
2018-06-02T10:23:39.533Z,4.40
2018-06-02T10:26:07.138Z,4.80
2018-06-02T10:28:35.730Z,4.57
2018-06-02T10:31:04.075Z,4.17
2018-06-02T10:33:31.699Z,4.50
2018-06-02T10:36:00.126Z,4.10
2018-06-02T10:38:27.687Z,3.92
2018-06-02T10:40:55.295Z,3.47
2018-06-02T10:43:22.865Z,3.70
2018-06-02T10:45:50.458Z,3.40
2018-06-02T10:48:18.070Z,3.87
2018-06-02T10:50:46.397Z,3.30
2018-06-02T10:53:14.065Z,3.45
2018-06-02T10:55:41.691Z,3.00
2018-06-02T10:58:09.345Z,3.27
2018-06-02T11:00:37.707Z,3.20
2018-06-02T11:03:06.065Z,3.20
2018-06-02T11:05:33.634Z,3.87
2018-06-02T11:08:01.248Z,3.40
2018-06-02T11:10:28.820Z,3.60
2018-06-02T11:12:56.359Z,3.60
2018-06-02T11:15:24.127Z,3.57
2018-06-02T11:17:51.867Z,3.40
2018-06-02T11:20:19.523Z,3.10
2018-06-02T11:22:48.632Z,3.20
2018-06-02T11:25:16.972Z,3.20
2018-06-02T11:27:44.642Z,3.23
2018-06-02T11:30:12.238Z,2.67
2018-06-02T11:32:40.552Z,2.85
2018-06-02T11:35:08.154Z,3.10
2018-06-02T11:37:35.730Z,2.62
2018-06-02T11:40:03.248Z,2.78
2018-06-02T11:42:31.590Z,2.87
2018-06-02T11:44:59.340Z,2.85
2018-06-02T11:47:26.935Z,3.00
2018-06-02T11:49:54.530Z,3.10
2018-06-02T11:52:22.150Z,3.30
2018-06-02T11:54:49.788Z,3.10
2018-06-02T11:57:18.158Z,3.25
2018-06-02T11:59:45.825Z,3.25
2018-06-02T12:02:13.531Z,3.05
2018-06-02T12:04:41.094Z,3.10
2018-06-02T12:07:08.673Z,3.20
2018-06-02T12:09:36.288Z,3.00
2018-06-02T12:12:04.611Z,2.90
2018-06-02T12:14:32.235Z,2.80
2018-06-02T12:16:59.831Z,2.90
2018-06-02T12:19:27.404Z,3.20
2018-06-02T12:21:55.007Z,2.90
2018-06-02T12:24:23.323Z,2.90
2018-06-02T12:26:51.685Z,4.05
2018-06-02T12:29:20.092Z,2.83
2018-06-02T12:31:47.968Z,3.00
2018-06-02T12:34:15.516Z,2.90
2018-06-02T12:36:43.063Z,3.03
2018-06-02T12:39:10.671Z,2.97
2018-06-02T12:41:38.958Z,3.62
2018-06-02T12:44:06.507Z,3.37
2018-06-02T12:46:35.315Z,3.50
2018-06-02T12:49:02.937Z,3.53
2018-06-02T12:51:30.542Z,3.50
2018-06-02T12:53:58.877Z,3.40
2018-06-02T12:56:27.199Z,3.20
2018-06-02T12:58:55.588Z,3.50
2018-06-02T13:01:23.141Z,3.30
2018-06-02T13:03:51.445Z,2.87
2018-06-02T13:06:19.747Z,3.10
2018-06-02T13:08:48.125Z,3.00
2018-06-02T13:11:15.710Z,3.28
2018-06-02T13:13:43.242Z,3.10
2018-06-02T13:16:11.592Z,3.50
2018-06-02T13:18:39.879Z,3.70
2018-06-02T13:21:07.450Z,3.30
2018-06-02T13:23:35.788Z,3.22
2018-06-02T13:26:04.100Z,3.42
2018-06-02T13:28:31.652Z,4.18
2018-06-02T13:30:59.311Z,3.78
2018-06-02T13:33:27.649Z,3.87
2018-06-02T13:35:55.183Z,3.50
2018-06-02T13:38:23.492Z,3.50
2018-06-02T13:40:51.824Z,3.20
2018-06-02T13:43:20.238Z,3.40
2018-06-02T13:45:48.683Z,3.60
2018-06-02T13:48:17.001Z,3.20
2018-06-02T13:50:45.344Z,3.50
2018-06-02T13:53:13.677Z,3.28
2018-06-02T13:55:41.996Z,3.22
2018-06-02T13:58:09.616Z,3.20
2018-06-02T14:00:37.154Z,2.93
2018-06-02T14:03:04.791Z,2.50
2018-06-02T14:05:33.070Z,2.37
2018-06-02T14:08:00.612Z,2.30
2018-06-02T14:10:29.121Z,1.95
2018-06-02T14:12:56.644Z,2.10
2018-06-02T14:15:24.960Z,2.05
2018-06-02T14:17:53.254Z,2.35
2018-06-02T14:20:21.565Z,1.90
2018-06-02T14:22:49.860Z,2.03
2018-06-02T14:25:17.645Z,2.10
2018-06-02T14:27:45.200Z,2.13
2018-06-02T14:30:12.800Z,2.10
2018-06-02T14:32:40.393Z,2.10
2018-06-02T14:35:07.940Z,2.10
2018-06-02T14:37:36.257Z,2.30
2018-06-02T14:40:03.927Z,2.20
2018-06-02T14:42:31.559Z,2.30
2018-06-02T14:44:59.863Z,2.28
2018-06-02T14:47:27.481Z,2.30
2018-06-02T14:49:55.947Z,2.42
2018-06-02T14:52:23.480Z,2.30
2018-06-02T14:54:51.837Z,2.15
2018-06-02T14:57:19.404Z,2.10
2018-06-02T14:59:47.696Z,2.70
2018-06-02T15:02:15.325Z,2.33
2018-06-02T15:04:42.947Z,2.50
2018-06-02T15:07:10.472Z,2.60
2018-06-02T15:09:38.393Z,2.20
2018-06-02T15:12:06.005Z,2.37
2018-06-02T15:14:33.624Z,2.17
2018-06-02T15:17:01.956Z,2.30
2018-06-02T15:19:30.308Z,2.80
2018-06-02T15:21:57.876Z,2.30
2018-06-02T15:24:26.197Z,2.17
2018-06-02T15:26:53.821Z,2.20
2018-06-02T15:29:21.362Z,2.20
2018-06-02T15:31:49.215Z,2.33
2018-06-02T15:34:17.619Z,2.67
2018-06-02T15:36:45.179Z,2.15
2018-06-02T15:39:12.818Z,2.40
2018-06-02T15:41:41.211Z,2.55
2018-06-02T15:44:09.535Z,2.20
2018-06-02T15:46:37.116Z,2.55
2018-06-02T15:49:04.742Z,2.42
2018-06-02T15:51:32.704Z,2.85
2018-06-02T15:54:00.500Z,2.47
2018-06-02T15:56:32.016Z,2.42
2018-06-02T15:59:03.756Z,2.22
2018-06-02T16:01:33.324Z,2.30
2018-06-02T16:04:01.611Z,2.53
2018-06-02T16:06:29.233Z,2.55
2018-06-02T16:08:57.548Z,2.60
2018-06-02T16:11:25.196Z,2.20
2018-06-02T16:13:53.623Z,2.33
2018-06-02T16:16:21.667Z,2.20
2018-06-02T16:18:51.105Z,2.20
2018-06-02T16:21:18.753Z,2.40
2018-06-02T16:23:46.356Z,2.30
2018-06-02T16:26:13.950Z,2.05
2018-06-02T16:28:41.511Z,2.50
2018-06-02T16:31:10.835Z,2.35
2018-06-02T16:33:39.381Z,3.40
2018-06-02T16:36:06.997Z,2.33
2018-06-02T16:38:34.686Z,7.32
2018-06-02T16:41:03.080Z,2.30
2018-06-02T16:43:31.061Z,2.20
2018-06-02T16:45:58.631Z,2.10
2018-06-02T16:48:26.190Z,2.50
2018-06-02T16:50:54.536Z,2.17
2018-06-02T16:53:22.115Z,2.78
2018-06-02T16:55:49.644Z,2.83
2018-06-02T16:58:17.940Z,2.75
2018-06-02T17:00:45.510Z,2.78
2018-06-02T17:03:13.820Z,2.08
2018-06-02T17:05:46.037Z,2.40
2018-06-02T17:08:18.695Z,2.80
2018-06-02T17:10:49.601Z,2.42
2018-06-02T17:13:22.178Z,3.03
2018-06-02T17:15:56.617Z,5.20
2018-06-02T17:18:28.824Z,2.80
2018-06-02T17:21:00.654Z,2.92
2018-06-02T17:23:31.942Z,3.20
2018-06-02T17:26:04.122Z,2.50
2018-06-02T17:28:36.793Z,2.87
2018-06-02T17:31:08.963Z,2.83
2018-06-02T17:33:41.436Z,2.50
2018-06-02T17:36:14.096Z,2.90
2018-06-02T17:38:42.481Z,2.75
2018-06-02T17:41:10.031Z,3.42
2018-06-02T17:43:38.368Z,3.10
2018-06-02T17:46:06.816Z,3.40
2018-06-02T17:48:34.572Z,3.78
2018-06-02T17:51:02.277Z,2.80
2018-06-02T17:53:29.831Z,2.90
2018-06-02T17:55:57.386Z,4.00
2018-06-02T17:58:24.966Z,3.13
2018-06-02T18:00:52.633Z,2.70
2018-06-02T18:03:20.175Z,2.67
2018-06-02T18:05:47.744Z,3.00
2018-06-02T18:08:16.078Z,17.48
2018-06-02T18:10:43.670Z,2.72
2018-06-02T18:13:11.980Z,8.20
2018-06-02T18:15:39.610Z,3.40
2018-06-02T18:18:07.153Z,2.80
2018-06-02T18:20:34.730Z,5.55
2018-06-02T18:23:02.288Z,8.40
2018-06-02T18:25:29.857Z,4.97
2018-06-02T18:27:57.496Z,2.93
2018-06-02T18:30:25.811Z,3.03
2018-06-02T18:32:54.136Z,3.22
2018-06-02T18:35:22.520Z,3.35
2018-06-02T18:37:50.848Z,3.40
2018-06-02T18:40:18.501Z,6.15
2018-06-02T18:42:46.148Z,4.00
2018-06-02T18:45:13.702Z,3.80
2018-06-02T18:47:41.446Z,3.53
2018-06-02T18:50:09.120Z,3.30
2018-06-02T18:52:36.700Z,3.70
2018-06-02T18:55:04.220Z,4.10
2018-06-02T18:57:32.550Z,3.40
2018-06-02T19:00:00.888Z,3.83
2018-06-02T19:02:29.246Z,3.95
2018-06-02T19:04:57.560Z,3.70
2018-06-02T19:07:25.936Z,3.83
2018-06-02T19:09:54.204Z,3.60
2018-06-02T19:12:21.802Z,3.85
2018-06-02T19:14:49.699Z,3.90
2018-06-02T19:17:17.308Z,3.43
2018-06-02T19:19:44.871Z,5.70
2018-06-02T19:22:13.184Z,4.25
2018-06-02T19:24:41.510Z,4.35
2018-06-02T19:27:09.822Z,4.30
2018-06-02T19:29:38.158Z,4.03
2018-06-02T19:32:05.805Z,5.10
2018-06-02T19:34:33.372Z,4.20
2018-06-02T19:37:01.703Z,4.28
2018-06-02T19:39:30.023Z,4.55
2018-06-02T19:41:57.577Z,5.73
2018-06-02T19:44:26.189Z,4.95
2018-06-02T19:46:53.784Z,4.62
2018-06-02T19:49:21.353Z,4.33
2018-06-02T19:51:48.991Z,4.60
2018-06-02T19:54:16.612Z,5.07
2018-06-02T19:56:44.913Z,4.65
2018-06-02T19:59:13.787Z,4.62
2018-06-02T20:01:41.340Z,4.43
2018-06-02T20:04:08.878Z,4.70
2018-06-02T20:06:37.190Z,4.80
2018-06-02T20:09:05.516Z,5.78
2018-06-02T20:11:33.906Z,4.33
2018-06-02T20:14:02.331Z,4.82
2018-06-02T20:16:29.885Z,4.80
2018-06-02T20:18:58.203Z,4.37
2018-06-02T20:21:25.744Z,4.40
2018-06-02T20:23:54.102Z,4.72
2018-06-02T20:26:22.478Z,5.18
2018-06-02T20:28:50.946Z,4.90
2018-06-02T20:31:18.592Z,5.23
2018-06-02T20:33:46.131Z,5.50
2018-06-02T20:36:14.598Z,6.47
2018-06-02T20:38:42.929Z,5.78
2018-06-02T20:41:10.483Z,5.90
2018-06-02T20:43:38.039Z,5.20
2018-06-02T20:46:06.590Z,5.68
2018-06-02T20:48:34.126Z,5.35
2018-06-02T20:51:01.694Z,8.55
2018-06-02T20:53:29.994Z,5.53
2018-06-02T20:55:57.551Z,5.37
2018-06-02T20:58:25.191Z,6.12
2018-06-02T21:00:52.759Z,5.22
2018-06-02T21:03:21.088Z,5.82
2018-06-02T21:05:48.739Z,5.00
2018-06-02T21:08:17.712Z,5.60
2018-06-02T21:10:45.287Z,5.70
2018-06-02T21:13:12.943Z,5.85
2018-06-02T21:15:41.178Z,5.75
2018-06-02T21:18:08.830Z,5.22
2018-06-02T21:20:36.389Z,5.03
2018-06-02T21:23:04.693Z,5.90
2018-06-02T21:25:32.334Z,6.18
2018-06-02T21:27:59.911Z,6.40
2018-06-02T21:30:27.491Z,6.55
2018-06-02T21:32:55.856Z,6.12
2018-06-02T21:35:23.511Z,6.90
2018-06-02T21:37:51.087Z,6.20
2018-06-02T21:40:19.770Z,5.75
2018-06-02T21:42:47.339Z,3.97
2018-06-02T21:45:15.762Z,3.75
2018-06-02T21:47:43.299Z,3.90
2018-06-02T21:50:10.815Z,4.07
2018-06-02T21:52:39.247Z,4.32
2018-06-02T21:55:07.128Z,4.12
2018-06-02T21:57:34.676Z,4.00
2018-06-02T22:00:03.106Z,4.05
2018-06-02T22:02:31.429Z,6.90
2018-06-02T22:04:59.764Z,3.60
2018-06-02T22:07:28.072Z,4.55
2018-06-02T22:09:56.368Z,3.85
2018-06-02T22:12:24.682Z,3.87
2018-06-02T22:14:53.083Z,4.40
2018-06-02T22:17:20.666Z,4.50
2018-06-02T22:19:48.265Z,3.55
2018-06-02T22:22:15.806Z,3.50
2018-06-02T22:24:44.179Z,4.50
2018-06-02T22:27:11.719Z,4.10
2018-06-02T22:29:40.632Z,3.62
2018-06-02T22:32:08.949Z,3.70
2018-06-02T22:34:36.561Z,3.00
2018-06-02T22:37:04.145Z,4.12
2018-06-02T22:39:31.671Z,3.50
2018-06-02T22:42:00.073Z,3.75
2018-06-02T22:44:27.603Z,4.03
2018-06-02T22:46:55.214Z,3.90
2018-06-02T22:49:22.776Z,3.58
2018-06-02T22:51:57.055Z,4.60
2018-06-02T22:54:24.677Z,4.80
2018-06-02T22:56:53.019Z,4.90
2018-06-02T22:59:20.662Z,4.43
2018-06-02T23:01:48.382Z,4.43
2018-06-02T23:04:16.735Z,4.55
2018-06-02T23:06:44.385Z,4.95
2018-06-02T23:09:12.021Z,4.20
2018-06-02T23:11:39.685Z,4.70
2018-06-02T23:14:07.240Z,5.00
2018-06-02T23:16:36.154Z,4.85
2018-06-02T23:19:03.974Z,4.30
2018-06-02T23:21:31.525Z,4.78
2018-06-02T23:23:59.859Z,3.92
2018-06-02T23:26:28.160Z,3.90
2018-06-02T23:28:55.747Z,4.50
2018-06-02T23:31:23.413Z,3.80
2018-06-02T23:33:51.052Z,3.62
2018-06-02T23:36:18.646Z,4.90
2018-06-02T23:38:47.011Z,3.72
2018-06-02T23:41:15.448Z,4.20
2018-06-02T23:43:43.781Z,5.07
2018-06-02T23:46:12.325Z,4.53
2018-06-02T23:48:39.895Z,4.53
2018-06-02T23:51:07.534Z,4.20
2018-06-02T23:53:35.855Z,4.93
2018-06-02T23:56:03.408Z,8.57
2018-06-02T23:58:31.716Z,19.02
